createdAt,value
2023-02-27T00:01:52.280Z,7.70
2023-02-27T00:06:55.886Z,14.82
2023-02-27T00:11:58.669Z,7.93
2023-02-27T00:17:01.481Z,8.15
2023-02-27T00:22:04.337Z,8.55
2023-02-27T00:27:06.798Z,9.13
2023-02-27T00:32:09.486Z,6.88
2023-02-27T00:37:12.101Z,7.43
2023-02-27T00:42:14.642Z,5.88
2023-02-27T00:47:18.660Z,15.63
2023-02-27T00:52:21.416Z,9.63
2023-02-27T00:57:24.100Z,6.57
2023-02-27T01:02:26.812Z,8.88
2023-02-27T01:07:32.082Z,9.18
2023-02-27T01:12:36.441Z,7.28
2023-02-27T01:17:39.526Z,9.55
2023-02-27T01:22:42.641Z,10.57
2023-02-27T01:27:48.528Z,8.27
2023-02-27T01:32:52.165Z,6.97
2023-02-27T01:37:54.692Z,11.32
2023-02-27T01:42:58.449Z,7.90
2023-02-27T01:48:13.641Z,11.33
2023-02-27T01:53:17.566Z,15.82
2023-02-27T01:58:21.564Z,8.23
2023-02-27T02:03:37.497Z,12.75
2023-02-27T02:08:43.781Z,9.18
2023-02-27T02:13:49.823Z,6.80
2023-02-27T02:19:20.892Z,9.75
2023-02-27T02:24:57.416Z,13.48
2023-02-27T02:30:35.551Z,8.50
2023-02-27T02:36:19.831Z,9.27
2023-02-27T02:41:34.117Z,7.80
2023-02-27T02:46:48.129Z,8.60
2023-02-27T02:52:03.856Z,8.02
2023-02-27T02:57:20.393Z,8.63
2023-02-27T03:02:28.424Z,9.77
2023-02-27T03:07:34.618Z,6.60
2023-02-27T03:12:40.263Z,13.73
2023-02-27T03:18:05.034Z,14.80
2023-02-27T03:23:11.914Z,10.88
2023-02-27T03:28:19.018Z,18.13
2023-02-27T03:33:27.597Z,8.60
2023-02-27T03:39:18.041Z,8.35
2023-02-27T03:44:44.848Z,11.23
2023-02-27T03:49:51.127Z,15.50
2023-02-27T03:54:58.628Z,12.48
2023-02-27T04:00:01.770Z,6.90
2023-02-27T04:05:04.694Z,6.95
2023-02-27T04:10:54.617Z,7.70
2023-02-27T04:16:34.637Z,7.00
2023-02-27T04:21:40.342Z,15.48
2023-02-27T04:26:58.231Z,9.15
2023-02-27T04:32:35.935Z,16.58
2023-02-27T04:37:47.522Z,9.43
2023-02-27T04:42:54.965Z,8.57
2023-02-27T04:48:09.557Z,13.18
2023-02-27T04:53:22.656Z,10.75
2023-02-27T04:58:39.752Z,8.38
2023-02-27T05:03:47.003Z,6.90
2023-02-27T05:09:09.641Z,12.50
2023-02-27T05:14:26.394Z,14.73
2023-02-27T05:19:31.228Z,8.38
2023-02-27T05:24:53.058Z,6.65
2023-02-27T05:30:27.572Z,10.85
2023-02-27T05:35:42.778Z,16.80
2023-02-27T05:41:09.395Z,13.15
2023-02-27T05:46:18.239Z,15.00
2023-02-27T05:51:22.113Z,13.18
2023-02-27T05:56:26.782Z,7.03
2023-02-27T06:01:29.719Z,20.05
2023-02-27T06:06:32.401Z,12.43
2023-02-27T06:11:34.979Z,10.95
2023-02-27T06:16:39.124Z,15.07
2023-02-27T06:21:42.757Z,15.52
2023-02-27T06:26:45.425Z,11.70
2023-02-27T06:31:49.137Z,6.93
2023-02-27T06:37:10.148Z,8.38
2023-02-27T06:42:12.925Z,10.13
2023-02-27T06:47:15.779Z,7.30
2023-02-27T06:52:18.343Z,14.02
2023-02-27T06:57:21.425Z,14.23
2023-02-27T07:02:26.355Z,10.02
2023-02-27T07:07:35.317Z,13.60
2023-02-27T07:12:40.039Z,13.98
2023-02-27T07:17:43.004Z,13.93
2023-02-27T07:22:45.629Z,22.55
2023-02-27T07:27:50.926Z,31.00
2023-02-27T07:32:53.448Z,31.50
2023-02-27T07:37:56.071Z,28.70
2023-02-27T07:42:58.802Z,31.15
2023-02-27T07:48:02.094Z,48.38
2023-02-27T07:53:05.610Z,38.83
2023-02-27T07:58:08.542Z,50.27
2023-02-27T08:03:11.581Z,59.63
2023-02-27T08:08:14.261Z,64.32
2023-02-27T08:13:20.655Z,59.67
2023-02-27T08:18:27.685Z,62.05
2023-02-27T08:23:30.252Z,55.80
2023-02-27T08:28:32.826Z,54.90
2023-02-27T08:33:37.197Z,75.18
2023-02-27T08:38:40.065Z,57.35
2023-02-27T08:43:42.588Z,47.55
2023-02-27T08:48:45.296Z,54.88
2023-02-27T08:53:47.889Z,49.22
2023-02-27T08:58:51.176Z,57.72
2023-02-27T09:03:53.957Z,39.45
2023-02-27T09:08:58.253Z,24.83
2023-02-27T09:14:01.182Z,18.83
2023-02-27T09:19:04.322Z,14.52
2023-02-27T09:24:25.785Z,13.82
2023-02-27T09:29:28.631Z,10.45
2023-02-27T09:34:31.222Z,10.07
2023-02-27T09:39:33.913Z,16.83
2023-02-27T09:44:46.536Z,19.38
2023-02-27T09:50:25.213Z,6.95
2023-02-27T09:55:31.441Z,6.95
2023-02-27T10:00:54.110Z,9.38
2023-02-27T10:06:15.505Z,7.07
2023-02-27T10:11:31.869Z,8.75
2023-02-27T10:16:36.082Z,8.07
2023-02-27T10:21:42.314Z,4.75
2023-02-27T10:26:45.614Z,6.68
2023-02-27T10:31:53.825Z,5.90
2023-02-27T10:36:57.892Z,4.97
2023-02-27T10:42:06.269Z,7.15
2023-02-27T10:47:16.862Z,9.82
2023-02-27T10:52:20.253Z,7.00
2023-02-27T10:57:31.017Z,7.47
2023-02-27T11:02:42.390Z,4.13
2023-02-27T11:07:45.287Z,5.85
2023-02-27T11:13:18.058Z,5.28
2023-02-27T11:18:29.428Z,5.53
2023-02-27T11:23:33.956Z,3.00
2023-02-27T11:28:36.495Z,2.20
2023-02-27T11:33:49.240Z,2.60
2023-02-27T11:38:56.111Z,4.10
2023-02-27T11:44:01.234Z,4.10
2023-02-27T11:49:38.197Z,4.85
2023-02-27T11:54:54.367Z,7.85
2023-02-27T12:00:20.173Z,4.28
2023-02-27T12:05:40.897Z,3.58
2023-02-27T12:11:13.838Z,6.95
2023-02-27T12:16:22.088Z,2.30
2023-02-27T12:21:37.138Z,3.40
2023-02-27T12:26:45.451Z,4.00
2023-02-27T12:31:53.366Z,3.75
2023-02-27T12:37:20.113Z,3.67
2023-02-27T12:42:47.304Z,6.85
2023-02-27T12:47:55.528Z,6.22
2023-02-27T12:53:22.848Z,3.78
2023-02-27T12:59:01.356Z,6.53
2023-02-27T13:04:13.557Z,6.63
2023-02-27T13:09:33.300Z,3.30
2023-02-27T13:14:50.559Z,8.13
2023-02-27T13:20:19.160Z,3.72
2023-02-27T13:25:22.255Z,3.72
2023-02-27T13:30:45.469Z,5.78
2023-02-27T13:36:15.963Z,9.47
2023-02-27T13:41:21.766Z,4.85
2023-02-27T13:46:28.362Z,5.13
2023-02-27T13:51:41.155Z,4.57
2023-02-27T13:56:50.968Z,9.10
2023-02-27T14:01:59.429Z,7.18
2023-02-27T14:07:07.570Z,8.18
2023-02-27T14:12:44.016Z,9.35
2023-02-27T14:17:54.615Z,4.13
2023-02-27T14:23:23.369Z,6.93
2023-02-27T14:28:51.807Z,5.00
2023-02-27T14:33:58.869Z,4.07
2023-02-27T14:39:04.550Z,6.20
2023-02-27T14:44:25.365Z,4.95
2023-02-27T14:49:35.126Z,5.97
2023-02-27T14:54:39.048Z,11.77
2023-02-27T14:59:47.184Z,4.83
2023-02-27T15:05:13.711Z,6.32
2023-02-27T15:10:24.172Z,5.57
2023-02-27T15:15:26.902Z,4.60
2023-02-27T15:20:34.904Z,7.60
2023-02-27T15:25:40.086Z,6.78
2023-02-27T15:30:50.900Z,4.38
2023-02-27T15:35:53.719Z,6.15
2023-02-27T15:40:58.165Z,4.22
2023-02-27T15:46:03.292Z,4.93
2023-02-27T15:51:06.958Z,4.97
2023-02-27T15:56:12.945Z,3.70
2023-02-27T16:01:20.050Z,9.52
2023-02-27T16:06:34.909Z,2.88
2023-02-27T16:11:38.050Z,4.95
2023-02-27T16:16:40.696Z,6.90
2023-02-27T16:22:15.406Z,4.07
2023-02-27T16:27:20.429Z,6.30
2023-02-27T16:32:27.877Z,3.45
2023-02-27T16:37:41.441Z,4.47
2023-02-27T16:42:45.972Z,4.60
2023-02-27T16:52:52.739Z,6.63
2023-02-27T16:57:55.977Z,4.32
2023-02-27T17:02:58.747Z,5.22
2023-02-27T17:08:01.915Z,6.03
2023-02-27T17:13:04.478Z,6.25
2023-02-27T17:18:09.527Z,4.57
2023-02-27T17:23:14.348Z,4.00
2023-02-27T17:28:17.256Z,6.47
2023-02-27T17:33:20.392Z,5.15
2023-02-27T17:38:23.513Z,7.85
2023-02-27T17:43:27.123Z,4.22
2023-02-27T17:48:29.807Z,5.38
2023-02-27T17:53:32.588Z,4.90
2023-02-27T17:58:35.269Z,5.50
2023-02-27T18:03:38.715Z,5.85
2023-02-27T18:08:41.707Z,5.25
2023-02-27T18:13:45.065Z,4.45
2023-02-27T18:18:49.819Z,4.30
2023-02-27T18:23:53.434Z,6.63
2023-02-27T18:29:02.115Z,7.95
2023-02-27T18:34:05.993Z,7.00
2023-02-27T18:39:08.810Z,5.27
2023-02-27T18:44:11.731Z,6.82
2023-02-27T18:49:15.803Z,7.28
2023-02-27T18:54:18.546Z,6.10
2023-02-27T18:59:22.237Z,4.47
2023-02-27T19:04:25.623Z,10.25
2023-02-27T19:09:32.800Z,5.35
2023-02-27T19:14:35.315Z,5.30
2023-02-27T19:19:38.016Z,5.93
2023-02-27T19:24:40.791Z,6.90
2023-02-27T19:29:45.866Z,6.03
2023-02-27T19:34:48.563Z,9.73
2023-02-27T19:39:51.809Z,9.20
2023-02-27T19:44:54.448Z,7.55
2023-02-27T19:50:01.865Z,4.95
2023-02-27T19:55:05.517Z,4.95
2023-02-27T20:00:10.344Z,6.82
2023-02-27T20:05:17.200Z,5.05
2023-02-27T20:10:20.034Z,7.10
2023-02-27T20:15:22.694Z,10.40
2023-02-27T20:20:25.710Z,7.63
2023-02-27T20:25:30.119Z,5.88
2023-02-27T20:35:39.916Z,5.28
2023-02-27T20:40:43.129Z,9.57
2023-02-27T20:45:46.533Z,7.90
2023-02-27T20:50:49.198Z,5.10
2023-02-27T20:55:51.838Z,7.85
2023-02-27T21:00:54.596Z,4.88
2023-02-27T21:05:58.240Z,6.50
2023-02-27T21:11:06.144Z,11.70
2023-02-27T21:16:10.428Z,7.15
2023-02-27T21:21:19.048Z,8.20
2023-02-27T21:26:24.397Z,11.98
2023-02-27T21:31:30.643Z,10.73
2023-02-27T21:36:37.069Z,7.93
2023-02-27T21:41:39.901Z,7.47
2023-02-27T21:46:42.908Z,7.32
2023-02-27T21:51:46.361Z,6.50
2023-02-27T21:56:49.939Z,5.03
2023-02-27T22:01:52.655Z,4.30
2023-02-27T22:06:55.241Z,8.57
2023-02-27T22:11:57.845Z,12.65
2023-02-27T22:17:00.398Z,7.72
2023-02-27T22:22:03.765Z,4.97
2023-02-27T22:27:06.355Z,9.00
2023-02-27T22:32:09.165Z,6.53
2023-02-27T22:37:30.892Z,11.98
2023-02-27T22:42:33.530Z,8.07
2023-02-27T22:47:36.105Z,14.80
2023-02-27T22:52:39.925Z,7.60
2023-02-27T22:57:42.532Z,5.90
2023-02-27T23:02:45.186Z,8.95
2023-02-27T23:07:47.761Z,14.20
2023-02-27T23:12:50.381Z,8.68
2023-02-27T23:17:58.278Z,10.77
2023-02-27T23:23:01.374Z,9.90
2023-02-27T23:28:05.519Z,6.53
2023-02-27T23:33:08.163Z,10.23
2023-02-27T23:38:10.889Z,7.57
2023-02-27T23:43:15.619Z,8.20
2023-02-27T23:53:21.801Z,9.82
2023-02-27T23:58:24.628Z,6.60
